• Join FlightAware (Why Join?)
  • Login
  • US Flag 
09:22PM EDT


 

Airport Tracker/Info


-or-


 

Live Flight TrackerFlight Track Log ✈ UPS1111 ✈ 27-Jan-2014 ✈ KJFK - KSDF

Flight Track Log - Related Links

Times and Time Zones

All times are in EST time to prevent confusion due to time zone crossing. See the UPS1111 flight status page for this flight to view local times or setup timezone preferences in your user account.

Time Position Orientation Groundspeed Altitude Reporting Facility
EST Latitude Longitude Course Direction KTS MPH feet Rate Location/Type
11:13PM 40.6333 -73.8167 252° West 159 183 1,900  Level New York TRACON
11:14PM 40.6167 -73.8833 252° West 215 247 4,500 2,040 Climbing New York TRACON
11:15PM 40.5500 -73.9333 210° Southwest 252 290 6,300 2,760 Climbing New York TRACON
11:16PM 40.5000 -73.9833 217° Southwest 229 264 10,300 3,000 Climbing New York TRACON
11:17PM 40.4500 -74.0333 217° Southwest 263 303 12,400 2,520 Climbing New York TRACON
11:18PM 40.3747 -74.1164 220° Southwest 313 360 16,000 2,940 Climbing New York Center
11:19PM 40.3322 -74.2097 239° Southwest 313 360 19,000 3,000 Climbing New York Center
11:20PM 40.3103 -74.3231 256° West 313 360 22,000 2,760 Climbing New York Center
11:21PM 40.2961 -74.4419 261° West 326 375 24,600 2,580 Climbing New York Center
11:22PM 40.2817 -74.5692 262° West 342 394 27,200 2,400 Climbing New York Center
11:23PM 40.2650 -74.6933 260° West 347 399 29,500 2,700 Climbing New York Center
11:24PM 40.2528 -74.8122 262° West 352 405 32,600 2,520 Climbing New York Center
11:25PM 40.2383 -74.9283 261° West 342 394 34,600 1,620 Climbing New York Center
11:26PM 40.2239 -75.0417 261° West 331 381 35,900 660 Climbing New York Center
11:27PM 40.2069 -75.1603 259° West 331 381 36,000  Climbing New York Center
11:28PM 40.1942 -75.2761 262° West 331 381 36,000  Level New York Center
11:29PM 40.1669 -75.3858 252° West 331 381 36,000  Level New York Center
11:31PM 40.1072 -75.6267 252° West 335 386 36,000  Level Washington Center
11:32PM 40.0803 -75.7433 253° West 335 386 36,000  Level Washington Center
11:33PM 40.0508 -75.8569 251° West 335 386 36,000  Level Washington Center
11:34PM 40.0256 -75.9708 254° West 335 386 36,000  Level Washington Center
11:35PM 39.9981 -76.0817 252° West 330 380 36,000  Level Washington Center
11:36PM 39.9683 -76.1950 251° West 330 380 36,000  Level Washington Center
11:37PM 39.9406 -76.3086 252° West 325 374 36,000  Level Washington Center
11:38PM 39.9128 -76.4192 252° West 325 374 36,000  Level Washington Center
11:39PM 39.8808 -76.5378 251° West 325 374 36,000  Level Washington Center
11:40PM 39.8506 -76.6508 251° West 331 381 36,000  Level Washington Center
11:41PM 39.8206 -76.7639 251° West 331 381 36,000  Level Washington Center
11:42PM 39.7922 -76.8769 252° West 336 387 36,000  Level Washington Center
11:43PM 39.7639 -76.9925 252° West 336 387 36,000  Level Washington Center
11:44PM 39.7333 -77.1078 251° West 341 392 36,000  Level Washington Center
11:45PM 39.7069 -77.2233 254° West 341 392 36,000  Level Washington Center
11:46PM 39.6761 -77.3386 251° West 341 392 36,000  Level Washington Center
11:47PM 39.6472 -77.4536 252° West 341 392 36,000  Level Washington Center
11:48PM 39.6161 -77.5689 251° West 341 392 36,000  Level Washington Center
11:49PM 39.5850 -77.6864 251° West 341 392 36,000  Level Washington Center
11:50PM 39.5558 -77.8039 252° West 341 392 36,000  Level Washington Center
11:51PM 39.5244 -77.9214 251° West 341 392 36,000  Level Washington Center
11:52PM 39.4931 -78.0386 251° West 341 392 36,000  Level Washington Center
11:53PM 39.4633 -78.1561 252° West 341 392 36,000  Level Washington Center
11:54PM 39.4317 -78.2731 251° West 341 392 36,000  Level Washington Center
11:55PM 39.3997 -78.3928 251° West 347 399 36,000  Level Washington Center
11:56PM 39.3678 -78.5125 251° West 352 405 36,000  Level Washington Center
11:57PM 39.3358 -78.6264 250° West 347 399 36,000  Level Washington Center
11:58PM 39.3036 -78.7431 250° West 347 399 36,000  Level Washington Center
11:59PM 39.2736 -78.8572 251° West 342 394 36,000  Level Washington Center
12:00AM 39.2433 -78.9711 251° West 342 394 36,000  Level Washington Center
12:01AM 39.2108 -79.0875 250° West 342 394 36,000  Level Washington Center
12:02AM 39.1781 -79.2036 250° West 342 394 36,000  Level Washington Center
12:03AM 39.1494 -79.3228 253° West 342 394 36,000  Level Washington Center
12:04AM 39.1167 -79.4389 250° West 342 394 36,000  Level Washington Center
12:05AM 39.0836 -79.5547 250° West 342 394 36,000  Level Washington Center
12:06AM 39.0506 -79.6706 250° West 342 394 36,000  Level Washington Center
12:07AM 39.0172 -79.7942 251° West 348 400 36,000  Level Washington Center
12:08AM 38.9819 -79.9022 247° West 343 395 36,000  Level Indianapolis Center
12:09AM 38.9494 -80.0131 249° West 341 392 36,000  Level Indianapolis Center
12:10AM 38.9175 -80.1256 250° West 340 391 36,000  Level Indianapolis Center
12:11AM 38.8844 -80.2397 250° West 341 392 36,000  Level Indianapolis Center
12:12AM 38.8508 -80.3550 250° West 344 396 36,000  Level Indianapolis Center
12:13AM 38.8186 -80.4683 250° West 340 391 36,000  Level Indianapolis Center
12:14AM 38.7847 -80.5822 249° West 340 391 36,000  Level Indianapolis Center
12:15AM 38.7519 -80.6956 250° West 340 391 36,000  Level Indianapolis Center
12:16AM 38.7186 -80.8092 249° West 340 391 36,000  Level Indianapolis Center
12:17AM 38.6858 -80.9233 250° West 342 394 36,000  Level Indianapolis Center
12:18AM 38.6511 -81.0364 249° West 341 392 36,000  Level Indianapolis Center
12:19AM 38.6103 -81.1744 249° West 344 396 36,000  Level Indianapolis Center
12:20AM 38.5764 -81.2900 249° West 344 396 36,000  Level Indianapolis Center
12:21AM 38.5483 -81.3817 249° West 342 394 36,000  Level Indianapolis Center
12:22AM 38.5136 -81.4975 249° West 343 395 36,000  Level Indianapolis Center
12:23AM 38.4792 -81.6128 249° West 343 395 36,000  Level Indianapolis Center
12:25AM 38.4447 -81.7264 249° West 341 392 36,000  Level Indianapolis Center
12:26AM 38.4092 -81.8411 248° West 341 392 36,000  Level Indianapolis Center
12:27AM 38.3750 -81.9511 248° West 339 390 36,000  Level Indianapolis Center
12:28AM 38.3406 -82.0628 249° West 338 389 36,000  Level Indianapolis Center
12:29AM 38.2989 -82.1967 248° West 338 389 36,000 -300 Level Indianapolis Center
12:30AM 38.2650 -82.3078 249° West 336 387 35,400 -900 Descending Indianapolis Center
12:31AM 38.2306 -82.4183 248° West 337 388 34,300 -1,200 Descending Indianapolis Center
12:32AM 38.1964 -82.5242 248° West 334 384 33,000 -1,200 Descending Indianapolis Center
12:33AM 38.1606 -82.6400 249° West 348 400 32,000 -540 Descending Indianapolis Center
12:34AM 38.1250 -82.7533 248° West 346 398 32,000  Level Indianapolis Center
12:35AM 38.0886 -82.8672 248° West 347 399 32,000  Level Indianapolis Center
12:36AM 38.0531 -82.9783 248° West 342 394 32,000  Level Indianapolis Center
12:37AM 38.0172 -83.0889 248° West 340 391 32,000  Level Indianapolis Center
12:38AM 37.9825 -83.1992 248° West 339 390 32,000  Level Indianapolis Center
12:39AM 37.9475 -83.3078 248° West 334 384 32,000  Level Indianapolis Center
12:40AM 37.9125 -83.4164 248° West 333 383 32,000  Level Indianapolis Center
12:41AM 37.8769 -83.5250 248° West 334 384 32,000  Level Indianapolis Center
12:42AM 37.8417 -83.6311 247° West 330 380 32,000  Level Indianapolis Center
12:43AM 37.8069 -83.7389 248° West 330 380 32,000 -240 Level Indianapolis Center
12:44AM 37.7736 -83.8683 252° West 331 381 31,600 -1,200 Descending Indianapolis Center
12:45AM 37.7600 -83.9828 261° West 331 381 29,700 -2,700 Descending Indianapolis Center
12:46AM 37.7467 -84.1044 262° West 345 397 26,200 -2,880 Descending Indianapolis Center
12:47AM 37.7333 -84.2300 262° West 357 411 24,000 -2,280 Descending Indianapolis Center
12:48AM 37.7208 -84.3489 262° West 346 398 21,600 -2,580 Descending Indianapolis Center
12:49AM 37.7081 -84.4647 262° West 335 386 18,800 -2,340 Descending Indianapolis Center
12:50AM 37.6967 -84.5783 263° West 330 380 16,900 -2,340 Descending Indianapolis Center
12:51AM 37.6833 -84.6917 262° West 327 376 14,100 -2,520 Descending Indianapolis Center
12:52AM 37.6708 -84.8042 262° West 324 373 11,900 -1,500 Descending Indianapolis Center
12:53AM 37.6592 -84.9003 261° West 279 321 11,100 -1,140 Descending Indianapolis Center
12:54AM 37.6714 -84.9731 282° West 239 275 9,700 -1,380 Descending Indianapolis Center
12:55AM 37.7139 -85.0375 310° West 242 278 8,400 -900 Descending Indianapolis Center
12:56AM 37.7606 -85.1006 313° West 244 281 8,000 -720 Descending Indianapolis Center
12:57AM 37.7981 -85.1708 304° West 241 277 7,000 -1,320 Descending Indianapolis Center
12:58AM 37.8253 -85.2489 294° West 241 277 5,400 -1,080 Descending Indianapolis Center
12:59AM 37.8581 -85.3339 296° West 242 278 4,900 -840 Descending Indianapolis Center
01:02AM 37.9333 -85.5333 296° West 202 232 2,500 -480 Descending Louisville TRACON
01:04AM 38.0167 -85.6500 312° West 167 192 2,500 -180 Level Louisville TRACON
01:06AM 38.1000 -85.7000 345° North 139 160 1,800 -360 Descending Louisville TRACON
01:08AM 38.1741 -85.7365 345° North  Level Estimated
01:15AM 38.1741 -85.7365 208° Southwest  Level Estimated
01:16AM 38.1741 -85.7365 208° Southwest  Level Estimated